Terminal Aerodrome Forecast
Issued by NWS Charleston, WV

Current Version | Previous Version | Graphics & Text | Print | Product List | Glossary On
Versions: 1 2 3 4 5 6 7 8 9 10 11 12 13 14 15 16 17 18 19 20 21 22
362
FTUS41 KRLX 050904 AAA
TAFEKN
TAF AMD
KEKN 050904Z 0509/0606 30008G18KT P6SM OVC035
     FM051300 30005KT P6SM BKN010
     FM051600 29005KT P6SM BKN022=

USA.gov is the U.S. government's official web portal to all federal, state and local government web resources and services.